Terminal Aerodrome Forecast
Issued by NWS Twin Cities, MN

Home | Current Version | Previous Version | Graphics & Text | Print | Product List | Glossary On
Versions: 1 2 3 4 5 6 7 8 9 10 11 12 13 14 15 16 17 18 19 20 21 22 23 24
000
FTUS43 KMPX 201139
TAFMSP
TAF
KMSP 201139Z 2012/2118 VRB03KT P6SM BKN250
      TEMPO 2012/2015 4SM BR
     FM201600 25003KT P6SM OVC100
     FM210400 VRB02KT P6SM BKN080
     FM211200 03005KT P6SM BKN050=

USA.gov is the U.S. government's official web portal to all federal, state and local government web resources and services.